Time;durP1;ratioP1;P1;durP2;ratioP2;P2;SDS_P1;SDS_P2;PMS_P1;PMS_P2;Temp;Humidity;BMP_temperature;BMP_pressure;BME280_temperature;BME280_humidity;BME280_pressure;Samples;Min_cycle;Max_cycle;Signal;HPM_P1;HPM_P2
2023/06/08 00:02:03;;;;;;;11.68;10.10;;;;;;;;;;13177318;22;20358;-86
2023/06/08 00:07:08;;;;;;;12.27;10.55;;;;;;;;;;13178059;22;20422;-87
2023/06/08 00:12:12;;;;;;;12.23;10.70;;;;;;;;;;13176722;22;20454;-86
2023/06/08 00:17:15;;;;;;;11.23;10.13;;;;;;;;;;13177485;22;20435;-86
2023/06/08 00:22:17;;;;;;;12.13;9.85;;;;;;;;;;13177423;22;20358;-87
2023/06/08 00:27:21;;;;;;;10.67;9.57;;;;;;;;;;13177177;22;20354;-87
2023/06/08 00:32:23;;;;;;;11.73;9.67;;;;;;;;;;13177751;22;20373;-87
2023/06/08 00:37:25;;;;;;;11.13;9.40;;;;;;;;;;13169898;22;20834;-86
2023/06/08 00:42:29;;;;;;;11.80;8.85;;;;;;;;;;13112212;22;20401;-87
2023/06/08 00:47:32;;;;;;;10.15;9.15;;;;;;;;;;13133537;22;20416;-87
2023/06/08 00:52:34;;;;;;;10.03;8.43;;;;;;;;;;13111404;22;21015;-85
2023/06/08 00:57:40;;;;;;;10.27;8.55;;;;;;;;;;13110136;22;20359;-86
2023/06/08 01:02:42;;;;;;;9.55;8.13;;;;;;;;;;13111341;22;20359;-87
2023/06/08 01:07:59;;;;;;;10.45;8.27;;;;;;;;;;13110930;22;20359;-86
2023/06/08 01:13:10;;;;;;;9.73;8.00;;;;;;;;;;13110992;22;20379;-86
2023/06/08 01:18:17;;;;;;;11.47;8.60;;;;;;;;;;13132754;22;20421;-87
2023/06/08 01:23:27;;;;;;;10.88;8.68;;;;;;;;;;13132424;22;20397;-87
2023/06/08 01:28:31;;;;;;;10.10;7.78;;;;;;;;;;13110319;22;20392;-86
2023/06/08 01:33:34;;;;;;;9.23;7.90;;;;;;;;;;13109681;22;20359;-86
2023/06/08 01:38:46;;;;;;;8.98;7.05;;;;;;;;;;13109669;22;20363;-86
2023/06/08 01:43:51;;;;;;;8.38;7.03;;;;;;;;;;13110994;22;20363;-86
2023/06/08 01:48:58;;;;;;;8.10;6.90;;;;;;;;;;13111755;22;20424;-86
2023/06/08 01:54:01;;;;;;;7.80;7.00;;;;;;;;;;13104591;22;20374;-86
2023/06/08 01:59:05;;;;;;;7.90;7.10;;;;;;;;;;13111006;22;20900;-87
2023/06/08 02:04:07;;;;;;;8.70;7.80;;;;;;;;;;13110119;22;20367;-86
2023/06/08 02:09:10;;;;;;;8.90;7.77;;;;;;;;;;13109788;22;20940;-86
2023/06/08 02:14:14;;;;;;;10.10;8.38;;;;;;;;;;13110470;22;20823;-86
2023/06/08 02:19:17;;;;;;;11.13;8.57;;;;;;;;;;13110639;22;20359;-87
2023/06/08 02:24:19;;;;;;;10.70;8.25;;;;;;;;;;13110224;22;20352;-86
2023/06/08 02:29:23;;;;;;;8.50;7.60;;;;;;;;;;13108610;22;20375;-87
2023/06/08 02:34:25;;;;;;;11.65;8.07;;;;;;;;;;13108126;22;20359;-87
2023/06/08 02:39:28;;;;;;;10.18;7.88;;;;;;;;;;13109514;22;20379;-86
2023/06/08 02:44:31;;;;;;;11.67;8.20;;;;;;;;;;13110652;22;20408;-86
2023/06/08 02:49:33;;;;;;;10.10;8.80;;;;;;;;;;13114612;22;20405;-87
2023/06/08 02:54:37;;;;;;;9.70;8.60;;;;;;;;;;13114079;22;20412;-86
2023/06/08 02:59:41;;;;;;;12.48;8.95;;;;;;;;;;13135124;22;20407;-86
2023/06/08 03:04:44;;;;;;;10.52;8.50;;;;;;;;;;13113449;22;20888;-85
2023/06/08 03:09:46;;;;;;;9.23;8.13;;;;;;;;;;13111742;22;20405;-87
2023/06/08 03:14:50;;;;;;;12.90;8.40;;;;;;;;;;13114065;22;20356;-87
2023/06/08 03:19:52;;;;;;;10.10;8.38;;;;;;;;;;13113301;22;20389;-87
2023/06/08 03:24:58;;;;;;;10.70;8.63;;;;;;;;;;13113311;22;20420;-87
2023/06/08 03:30:02;;;;;;;9.73;8.23;;;;;;;;;;13113406;22;20412;-87
2023/06/08 03:35:05;;;;;;;11.75;8.90;;;;;;;;;;13112552;22;20396;-87
2023/06/08 03:40:09;;;;;;;11.63;9.73;;;;;;;;;;13112881;22;20742;-87
2023/06/08 03:45:13;;;;;;;11.80;10.10;;;;;;;;;;13114502;22;20363;-88
2023/06/08 03:50:15;;;;;;;12.10;9.98;;;;;;;;;;13113417;22;20379;-87
2023/06/08 03:55:18;;;;;;;12.93;10.23;;;;;;;;;;13112881;22;20363;-87
2023/06/08 04:00:21;;;;;;;13.47;10.13;;;;;;;;;;13135355;22;20355;-87
2023/06/08 04:05:24;;;;;;;15.87;11.00;;;;;;;;;;13112840;22;20412;-87
2023/06/08 04:10:26;;;;;;;14.63;11.33;;;;;;;;;;13112030;22;21216;-85
2023/06/08 04:15:30;;;;;;;15.45;11.32;;;;;;;;;;13112283;22;20360;-87
2023/06/08 04:20:33;;;;;;;14.82;11.65;;;;;;;;;;13113171;22;20393;-87
2023/06/08 04:25:36;;;;;;;15.02;11.82;;;;;;;;;;13112198;22;20827;-88
2023/06/08 04:30:40;;;;;;;15.88;11.68;;;;;;;;;;13112184;22;20379;-87
2023/06/08 04:35:42;;;;;;;13.73;10.30;;;;;;;;;;13111715;22;20375;-87
2023/06/08 04:40:49;;;;;;;12.23;9.88;;;;;;;;;;13112032;22;20676;-88
2023/06/08 04:45:57;;;;;;;10.35;9.23;;;;;;;;;;13117400;22;20359;-87
2023/06/08 04:51:01;;;;;;;10.15;7.38;;;;;;;;;;13111176;22;20379;-85
2023/06/08 04:56:05;;;;;;;8.63;7.53;;;;;;;;;;13111507;22;20657;-88
2023/06/08 05:01:08;;;;;;;10.48;6.85;;;;;;;;;;13133030;22;20359;-86
2023/06/08 05:06:10;;;;;;;8.40;6.93;;;;;;;;;;13130030;22;20831;-87
2023/06/08 05:11:13;;;;;;;7.43;6.00;;;;;;;;;;13106072;22;20412;-87
2023/06/08 05:16:17;;;;;;;7.57;5.77;;;;;;;;;;13107555;22;20838;-87
2023/06/08 05:21:19;;;;;;;7.65;6.15;;;;;;;;;;13106749;22;20367;-88
2023/06/08 05:26:22;;;;;;;7.07;5.05;;;;;;;;;;13107810;22;20368;-87
2023/06/08 05:31:26;;;;;;;6.22;4.95;;;;;;;;;;13108014;22;20408;-87
2023/06/08 05:36:28;;;;;;;5.28;4.28;;;;;;;;;;13105431;22;20815;-87
2023/06/08 05:41:31;;;;;;;6.90;4.53;;;;;;;;;;13103151;22;20931;-87
2023/06/08 05:46:34;;;;;;;5.28;4.40;;;;;;;;;;13105084;22;20816;-86
2023/06/08 05:51:37;;;;;;;5.00;4.18;;;;;;;;;;13125821;22;20400;-86
2023/06/08 05:56:39;;;;;;;6.43;4.78;;;;;;;;;;13107567;22;20854;-86
2023/06/08 06:01:43;;;;;;;5.07;4.47;;;;;;;;;;13109395;22;20363;-86
2023/06/08 06:06:45;;;;;;;6.45;4.85;;;;;;;;;;13107251;22;20420;-85
2023/06/08 06:11:48;;;;;;;5.50;4.95;;;;;;;;;;13129235;22;20370;-86
2023/06/08 06:16:51;;;;;;;6.78;4.50;;;;;;;;;;13113346;22;20363;-87
2023/06/08 06:21:53;;;;;;;5.32;4.15;;;;;;;;;;13112283;22;20424;-87
2023/06/08 06:26:56;;;;;;;4.80;4.10;;;;;;;;;;13108500;22;20386;-86
2023/06/08 06:32:00;;;;;;;4.65;3.67;;;;;;;;;;13107332;22;20375;-84
2023/06/08 06:37:02;;;;;;;7.78;4.45;;;;;;;;;;13107825;22;20437;-84
2023/06/08 06:42:05;;;;;;;6.22;3.80;;;;;;;;;;13106044;22;20393;-85
2023/06/08 06:47:09;;;;;;;5.43;3.87;;;;;;;;;;13106915;22;20860;-80
2023/06/08 06:52:11;;;;;;;5.75;3.90;;;;;;;;;;13107184;22;20405;-77
2023/06/08 06:57:13;;;;;;;4.13;3.73;;;;;;;;;;13105986;22;20367;-75
2023/06/08 07:02:17;;;;;;;4.80;3.70;;;;;;;;;;13105520;22;20440;-76
2023/06/08 07:07:24;;;;;;;4.95;4.15;;;;;;;;;;13107868;22;20675;-76
2023/06/08 07:12:27;;;;;;;6.25;4.15;;;;;;;;;;13103375;22;20961;-76
2023/06/08 07:17:31;;;;;;;4.63;3.60;;;;;;;;;;13105701;22;20359;-76
2023/06/08 07:22:33;;;;;;;5.00;3.97;;;;;;;;;;13103713;22;20389;-76
2023/06/08 07:27:36;;;;;;;6.32;4.50;;;;;;;;;;13104228;22;20359;-76
2023/06/08 07:32:40;;;;;;;7.68;4.82;;;;;;;;;;13107708;22;20821;-76
2023/06/08 07:37:42;;;;;;;6.25;4.40;;;;;;;;;;13108279;22;20707;-75
2023/06/08 07:42:44;;;;;;;4.10;3.63;;;;;;;;;;13107444;22;20355;-76
2023/06/08 07:47:48;;;;;;;5.63;4.50;;;;;;;;;;13108223;22;20831;-75
2023/06/08 07:52:50;;;;;;;5.33;4.10;;;;;;;;;;13108653;22;20680;-75
2023/06/08 07:57:52;;;;;;;5.77;4.63;;;;;;;;;;13109117;22;20386;-75
2023/06/08 08:02:56;;;;;;;6.93;5.85;;;;;;;;;;13109615;22;20876;-85
2023/06/08 08:07:59;;;;;;;9.27;6.90;;;;;;;;;;13109376;22;20436;-84
2023/06/08 08:13:01;;;;;;;10.90;7.88;;;;;;;;;;13107608;22;20860;-84
2023/06/08 08:18:05;;;;;;;11.17;8.13;;;;;;;;;;13108380;22;20359;-86
2023/06/08 08:23:07;;;;;;;13.98;10.10;;;;;;;;;;13108663;22;20900;-84
2023/06/08 08:28:09;;;;;;;14.63;10.07;;;;;;;;;;13109040;22;20364;-84
2023/06/08 08:33:13;;;;;;;13.77;10.25;;;;;;;;;;13107603;22;20437;-85
2023/06/08 08:38:16;;;;;;;14.48;10.35;;;;;;;;;;13107837;22;20661;-84
2023/06/08 08:43:24;;;;;;;13.13;10.05;;;;;;;;;;13107775;22;20367;-85
2023/06/08 08:48:30;;;;;;;11.35;8.55;;;;;;;;;;13108649;22;20359;-85
2023/06/08 08:53:33;;;;;;;9.57;7.85;;;;;;;;;;13107853;22;20448;-85
2023/06/08 08:58:36;;;;;;;11.13;9.20;;;;;;;;;;13109398;22;20424;-85
2023/06/08 09:03:41;;;;;;;12.03;9.50;;;;;;;;;;13108703;22;20363;-84
2023/06/08 09:08:43;;;;;;;12.32;9.88;;;;;;;;;;13108243;22;20442;-85
2023/06/08 09:13:46;;;;;;;14.55;10.20;;;;;;;;;;13107153;22;20444;-84
2023/06/08 09:19:05;;;;;;;11.57;8.73;;;;;;;;;;13106951;22;20397;-84
2023/06/08 09:24:11;;;;;;;12.85;9.07;;;;;;;;;;13107168;22;20385;-85
2023/06/08 09:29:30;;;;;;;11.77;8.02;;;;;;;;;;13107631;22;20398;-85
2023/06/08 09:34:49;;;;;;;12.65;9.70;;;;;;;;;;13106852;22;20874;-84
2023/06/08 09:39:51;;;;;;;9.80;8.45;;;;;;;;;;13106762;22;20429;-85
2023/06/08 09:45:08;;;;;;;12.40;8.77;;;;;;;;;;13106081;22;20416;-85
2023/06/08 09:50:13;;;;;;;10.95;8.15;;;;;;;;;;13106319;22;20390;-85
2023/06/08 09:55:17;;;;;;;14.77;11.45;;;;;;;;;;13106982;22;20409;-84
2023/06/08 10:00:23;;;;;;;14.15;11.20;;;;;;;;;;13128357;22;20355;-84
2023/06/08 10:05:33;;;;;;;11.57;8.60;;;;;;;;;;13106794;22;20823;-85
2023/06/08 10:10:37;;;;;;;10.23;8.30;;;;;;;;;;13106567;22;20381;-85
2023/06/08 10:15:39;;;;;;;11.23;8.43;;;;;;;;;;13107865;22;20444;-82
2023/06/08 10:20:43;;;;;;;8.98;7.22;;;;;;;;;;13107628;22;20367;-87
2023/06/08 10:25:49;;;;;;;12.77;9.45;;;;;;;;;;13108275;22;20816;-86
2023/06/08 10:30:51;;;;;;;9.45;7.80;;;;;;;;;;13128245;22;20436;-86
2023/06/08 10:36:06;;;;;;;8.68;7.43;;;;;;;;;;13107885;22;20375;-87
2023/06/08 10:41:09;;;;;;;10.80;8.20;;;;;;;;;;13105298;22;20428;-87
2023/06/08 10:46:13;;;;;;;11.63;8.50;;;;;;;;;;13106318;22;20364;-87
2023/06/08 10:51:23;;;;;;;10.40;6.72;;;;;;;;;;13106878;22;20413;-87
2023/06/08 10:56:28;;;;;;;8.38;5.20;;;;;;;;;;13106709;22;20393;-86
2023/06/08 11:01:32;;;;;;;6.45;5.10;;;;;;;;;;13128000;22;20355;-87
2023/06/08 11:06:35;;;;;;;8.95;6.75;;;;;;;;;;13107928;22;20817;-86
2023/06/08 11:11:50;;;;;;;10.90;6.65;;;;;;;;;;13110144;22;20367;-86
2023/06/08 11:16:53;;;;;;;14.77;5.47;;;;;;;;;;13110676;22;20361;-86
2023/06/08 11:21:57;;;;;;;6.57;5.20;;;;;;;;;;13102721;22;20397;-87
2023/06/08 11:27:00;;;;;;;35.53;9.93;;;;;;;;;;13103266;22;20375;-86
2023/06/08 11:32:20;;;;;;;12.98;5.30;;;;;;;;;;13106960;22;20383;-86
2023/06/08 11:37:24;;;;;;;8.05;5.10;;;;;;;;;;13101760;22;20703;-85
2023/06/08 11:42:26;;;;;;;11.27;4.93;;;;;;;;;;13101036;22;20375;-86
2023/06/08 11:47:29;;;;;;;14.73;3.90;;;;;;;;;;13111965;22;20424;-84
2023/06/08 11:52:34;;;;;;;6.65;5.35;;;;;;;;;;13102292;22;20453;-86
2023/06/08 11:57:41;;;;;;;6.28;4.95;;;;;;;;;;13113550;22;20378;-86
2023/06/08 12:02:47;;;;;;;7.22;3.78;;;;;;;;;;13114584;22;20409;-86
2023/06/08 12:07:58;;;;;;;3.92;3.00;;;;;;;;;;13102944;22;20473;-86
2023/06/08 12:13:01;;;;;;;4.40;2.80;;;;;;;;;;13103285;22;20703;-87
2023/06/08 12:18:04;;;;;;;6.28;4.78;;;;;;;;;;13104565;22;20363;-87
2023/06/08 12:23:08;;;;;;;6.43;4.15;;;;;;;;;;13107393;22;20359;-86
2023/06/08 12:28:17;;;;;;;13.63;4.90;;;;;;;;;;13108089;22;20405;-87
2023/06/08 12:33:20;;;;;;;5.15;3.22;;;;;;;;;;13107865;22;20432;-86
2023/06/08 12:38:24;;;;;;;6.38;5.20;;;;;;;;;;13129753;22;20409;-86
2023/06/08 12:43:27;;;;;;;6.07;4.80;;;;;;;;;;13108506;22;20359;-86
2023/06/08 12:48:29;;;;;;;8.63;6.90;;;;;;;;;;13129133;22;20398;-86
2023/06/08 12:53:33;;;;;;;9.35;7.65;;;;;;;;;;13107478;22;21181;-86
2023/06/08 12:58:35;;;;;;;8.57;5.17;;;;;;;;;;13107466;22;20375;-87
2023/06/08 13:03:39;;;;;;;7.77;5.83;;;;;;;;;;13107790;22;20351;-86
2023/06/08 13:08:42;;;;;;;7.13;6.43;;;;;;;;;;13107376;22;20823;-86
2023/06/08 13:13:45;;;;;;;7.10;5.30;;;;;;;;;;13108270;22;20384;-86
2023/06/08 13:18:47;;;;;;;8.73;6.50;;;;;;;;;;13106877;22;20385;-86
2023/06/08 13:23:51;;;;;;;5.83;4.93;;;;;;;;;;13129198;22;20827;-86
2023/06/08 13:28:53;;;;;;;6.32;4.57;;;;;;;;;;13106500;22;20354;-86
2023/06/08 13:33:56;;;;;;;4.50;4.10;;;;;;;;;;13106296;22;20387;-86
2023/06/08 13:38:59;;;;;;;4.70;3.87;;;;;;;;;;13106667;22;20719;-87
2023/06/08 13:44:02;;;;;;;4.72;4.03;;;;;;;;;;13127929;22;20656;-85
2023/06/08 13:49:04;;;;;;;5.47;4.00;;;;;;;;;;13106822;22;20363;-85
2023/06/08 13:54:08;;;;;;;4.03;3.45;;;;;;;;;;13127684;22;20436;-85
2023/06/08 13:59:11;;;;;;;4.60;3.77;;;;;;;;;;13105991;22;20440;-86
2023/06/08 14:04:13;;;;;;;4.97;3.67;;;;;;;;;;13105793;22;21015;-85
2023/06/08 14:09:17;;;;;;;4.63;3.35;;;;;;;;;;13105587;22;20364;-86
2023/06/08 14:14:19;;;;;;;4.93;4.28;;;;;;;;;;13127651;22;20895;-85
2023/06/08 14:19:21;;;;;;;4.55;4.00;;;;;;;;;;13106272;22;20397;-85
2023/06/08 14:24:27;;;;;;;4.93;4.53;;;;;;;;;;13104346;22;20343;-84
2023/06/08 14:29:29;;;;;;;5.55;4.88;;;;;;;;;;13104412;22;20355;-85
2023/06/08 14:34:31;;;;;;;5.53;5.03;;;;;;;;;;13127185;22;20379;-85
2023/06/08 14:39:36;;;;;;;6.65;4.75;;;;;;;;;;13107919;22;20375;-85
2023/06/08 14:44:39;;;;;;;5.10;4.60;;;;;;;;;;13110476;22;20359;-86
2023/06/08 14:49:42;;;;;;;4.55;3.88;;;;;;;;;;13109464;22;20888;-85
2023/06/08 14:54:45;;;;;;;5.03;3.60;;;;;;;;;;13131623;22;20866;-85
2023/06/08 14:59:48;;;;;;;11.65;5.75;;;;;;;;;;13110932;22;20750;-86
2023/06/08 15:04:50;;;;;;;5.55;4.35;;;;;;;;;;13110880;22;20378;-86
2023/06/08 15:09:54;;;;;;;5.30;4.80;;;;;;;;;;13104843;22;20351;-86
2023/06/08 15:14:56;;;;;;;5.63;5.07;;;;;;;;;;13110134;22;20462;-85
2023/06/08 15:19:58;;;;;;;5.28;4.78;;;;;;;;;;13108699;22;20359;-85
2023/06/08 15:25:02;;;;;;;6.07;4.70;;;;;;;;;;13131375;22;20371;-85
2023/06/08 15:30:05;;;;;;;7.60;5.17;;;;;;;;;;13108663;22;20351;-85
2023/06/08 15:35:08;;;;;;;7.32;4.50;;;;;;;;;;13107643;22;20409;-84
2023/06/08 15:40:17;;;;;;;3.67;3.28;;;;;;;;;;13109029;22;20367;-85
2023/06/08 15:45:19;;;;;;;5.10;4.50;;;;;;;;;;13107916;22;20389;-85
2023/06/08 15:50:22;;;;;;;5.50;5.00;;;;;;;;;;13098546;22;20456;-78
2023/06/08 15:55:25;;;;;;;4.97;4.30;;;;;;;;;;13099178;22;20434;-76
2023/06/08 16:00:28;;;;;;;5.10;4.60;;;;;;;;;;13098790;22;20434;-83
2023/06/08 16:05:30;;;;;;;6.03;4.50;;;;;;;;;;13097396;22;20412;-82
2023/06/08 16:10:34;;;;;;;4.55;4.13;;;;;;;;;;13096798;22;20405;-84
2023/06/08 16:15:36;;;;;;;9.77;4.03;;;;;;;;;;13097226;22;20387;-83
2023/06/08 16:20:38;;;;;;;5.45;3.65;;;;;;;;;;13097017;22;20378;-83
2023/06/08 16:25:42;;;;;;;3.78;3.40;;;;;;;;;;13096522;22;20371;-83
2023/06/08 16:30:44;;;;;;;5.03;3.78;;;;;;;;;;13097009;22;20375;-82
2023/06/08 16:35:47;;;;;;;4.72;4.03;;;;;;;;;;13098327;22;20371;-83
2023/06/08 16:40:51;;;;;;;5.30;4.45;;;;;;;;;;13095546;22;20433;-83
2023/06/08 16:45:53;;;;;;;4.87;4.03;;;;;;;;;;13111865;22;20375;-83
2023/06/08 16:50:55;;;;;;;5.70;4.20;;;;;;;;;;13096319;22;20846;-82
2023/06/08 16:56:00;;;;;;;4.83;3.63;;;;;;;;;;13096461;22;20932;-82
2023/06/08 17:01:02;;;;;;;5.85;4.00;;;;;;;;;;13097808;22;20363;-83
2023/06/08 17:06:06;;;;;;;4.97;4.18;;;;;;;;;;13095543;22;20908;-85
2023/06/08 17:11:10;;;;;;;5.00;4.27;;;;;;;;;;13096217;22;20440;-83
2023/06/08 17:16:12;;;;;;;4.90;4.30;;;;;;;;;;13096220;22;20891;-82
2023/06/08 17:21:17;;;;;;;5.13;4.50;;;;;;;;;;13093430;22;20433;-82
2023/06/08 17:26:20;;;;;;;18.42;6.55;;;;;;;;;;13095876;22;20375;-82
2023/06/08 17:31:23;;;;;;;8.03;5.60;;;;;;;;;;13089787;22;20371;-82
2023/06/08 17:36:26;;;;;;;8.07;5.27;;;;;;;;;;13102004;22;20379;-82
2023/06/08 17:41:29;;;;;;;10.50;5.53;;;;;;;;;;13096829;22;20397;-81
2023/06/08 17:46:32;;;;;;;9.82;5.80;;;;;;;;;;13099572;22;20859;-82
2023/06/08 17:51:35;;;;;;;7.07;5.30;;;;;;;;;;13098095;22;20865;-82
2023/06/08 17:56:38;;;;;;;7.55;5.38;;;;;;;;;;13097448;22;20383;-77
2023/06/08 18:01:41;;;;;;;6.43;5.32;;;;;;;;;;13118644;22;20375;-78
2023/06/08 18:06:43;;;;;;;7.88;5.55;;;;;;;;;;13099161;22;20563;-79
2023/06/08 18:11:47;;;;;;;9.23;4.90;;;;;;;;;;13096883;22;20367;-82
2023/06/08 18:16:49;;;;;;;6.78;3.97;;;;;;;;;;13098047;22;20498;-81
2023/06/08 18:21:51;;;;;;;5.40;3.93;;;;;;;;;;13096843;22;21010;-81
2023/06/08 18:26:56;;;;;;;6.13;4.05;;;;;;;;;;13097306;22;20681;-82
2023/06/08 18:31:58;;;;;;;6.78;4.03;;;;;;;;;;13098050;22;20371;-81
2023/06/08 18:37:00;;;;;;;4.40;3.50;;;;;;;;;;13105320;22;20383;-80
2023/06/08 18:42:05;;;;;;;3.85;3.25;;;;;;;;;;13108220;22;20383;-82
2023/06/08 18:47:08;;;;;;;5.55;4.13;;;;;;;;;;13097471;22;20909;-81
2023/06/08 18:52:10;;;;;;;6.27;4.90;;;;;;;;;;13097340;22;20367;-82
2023/06/08 18:57:14;;;;;;;7.50;5.85;;;;;;;;;;13096893;22;20379;-82
2023/06/08 19:02:18;;;;;;;8.05;6.75;;;;;;;;;;13098762;22;20364;-82
2023/06/08 19:07:20;;;;;;;9.03;7.20;;;;;;;;;;13103625;22;20367;-82
2023/06/08 19:12:24;;;;;;;10.33;8.00;;;;;;;;;;13102359;22;20438;-81
2023/06/08 19:17:26;;;;;;;9.67;7.50;;;;;;;;;;13106044;22;20424;-81
2023/06/08 19:22:29;;;;;;;9.18;7.10;;;;;;;;;;13095597;22;20355;-82
2023/06/08 19:27:32;;;;;;;11.38;7.05;;;;;;;;;;13099913;22;20405;-81
2023/06/08 19:32:34;;;;;;;9.85;8.15;;;;;;;;;;13102711;22;20355;-82
2023/06/08 19:37:38;;;;;;;10.10;8.80;;;;;;;;;;13103478;22;20448;-82
2023/06/08 19:42:43;;;;;;;10.40;7.47;;;;;;;;;;13096651;22;20816;-82
2023/06/08 19:47:45;;;;;;;11.20;8.43;;;;;;;;;;13113903;22;20359;-83
2023/06/08 19:52:47;;;;;;;10.27;8.48;;;;;;;;;;13094298;22;20967;-82
2023/06/08 19:57:51;;;;;;;8.47;7.20;;;;;;;;;;13094553;22;20460;-82
2023/06/08 20:02:53;;;;;;;7.27;6.53;;;;;;;;;;13093308;22;20432;-82
2023/06/08 20:07:56;;;;;;;7.97;6.75;;;;;;;;;;13094181;22;20379;-82
2023/06/08 20:13:01;;;;;;;8.38;7.03;;;;;;;;;;13094495;22;20375;-82
2023/06/08 20:18:07;;;;;;;10.40;7.63;;;;;;;;;;13092515;22;20387;-81
2023/06/08 20:23:09;;;;;;;10.38;7.65;;;;;;;;;;13094373;22;20371;-81
2023/06/08 20:28:13;;;;;;;9.60;7.60;;;;;;;;;;13092160;22;20879;-82
2023/06/08 20:33:15;;;;;;;10.32;7.28;;;;;;;;;;13093219;22;20839;-82
2023/06/08 20:38:18;;;;;;;9.75;7.40;;;;;;;;;;13093338;22;20375;-82
2023/06/08 20:43:21;;;;;;;10.68;7.53;;;;;;;;;;13094031;22;20428;-81
2023/06/08 20:48:24;;;;;;;10.10;7.85;;;;;;;;;;13095712;22;20355;-82
2023/06/08 20:53:26;;;;;;;8.07;7.20;;;;;;;;;;13093905;22;20432;-82
2023/06/08 20:58:30;;;;;;;11.47;8.00;;;;;;;;;;13093906;22;20375;-81
2023/06/08 21:03:33;;;;;;;10.80;7.83;;;;;;;;;;13093524;22;20382;-82
2023/06/08 21:08:35;;;;;;;9.30;6.82;;;;;;;;;;13094923;22;20452;-82
2023/06/08 21:13:39;;;;;;;7.93;6.43;;;;;;;;;;13094899;22;20431;-83
2023/06/08 21:18:41;;;;;;;9.50;6.70;;;;;;;;;;13093002;22;20444;-81
2023/06/08 21:23:43;;;;;;;8.77;6.15;;;;;;;;;;13093687;22;20468;-82
2023/06/08 21:28:47;;;;;;;7.40;6.30;;;;;;;;;;13091086;22;20444;-82
2023/06/08 21:33:49;;;;;;;6.57;5.43;;;;;;;;;;13099574;22;20406;-82
2023/06/08 21:38:53;;;;;;;7.65;6.25;;;;;;;;;;13100765;22;20433;-82
2023/06/08 21:43:58;;;;;;;8.30;6.27;;;;;;;;;;13073768;22;21991;-82
2023/06/08 21:49:01;;;;;;;7.07;5.67;;;;;;;;;;13101809;22;20393;-82
2023/06/08 21:54:03;;;;;;;6.78;5.80;;;;;;;;;;13106349;22;20642;-82
2023/06/08 21:59:07;;;;;;;7.82;5.95;;;;;;;;;;13105025;22;20432;-82
2023/06/08 22:04:09;;;;;;;7.18;5.35;;;;;;;;;;13106729;22;20428;-82
2023/06/08 22:09:12;;;;;;;10.10;5.85;;;;;;;;;;13108343;22;20359;-82
2023/06/08 22:14:16;;;;;;;6.90;5.43;;;;;;;;;;13108197;22;20370;-82
2023/06/08 22:19:18;;;;;;;6.32;5.40;;;;;;;;;;13106908;22;20448;-82
2023/06/08 22:24:21;;;;;;;5.93;5.07;;;;;;;;;;13105529;22;20450;-82
2023/06/08 22:29:25;;;;;;;5.75;5.00;;;;;;;;;;13106371;22;20431;-82
2023/06/08 22:34:28;;;;;;;5.78;4.82;;;;;;;;;;13107315;22;20420;-82
2023/06/08 22:39:32;;;;;;;10.20;5.10;;;;;;;;;;13127829;22;20368;-82
2023/06/08 22:44:36;;;;;;;5.85;5.03;;;;;;;;;;13103151;22;20359;-82
2023/06/08 22:49:39;;;;;;;6.15;4.93;;;;;;;;;;13104295;22;20464;-83
2023/06/08 22:54:42;;;;;;;6.18;4.93;;;;;;;;;;13125492;22;20405;-82
2023/06/08 22:59:46;;;;;;;8.05;5.35;;;;;;;;;;13125170;22;20688;-82
2023/06/08 23:04:48;;;;;;;7.43;5.47;;;;;;;;;;13108067;22;20363;-82
2023/06/08 23:09:52;;;;;;;6.40;5.70;;;;;;;;;;13109415;22;20738;-82
2023/06/08 23:14:56;;;;;;;8.60;5.85;;;;;;;;;;13109950;22;20397;-83
2023/06/08 23:19:59;;;;;;;7.68;5.53;;;;;;;;;;13110369;22;20371;-82
2023/06/08 23:25:03;;;;;;;6.82;5.75;;;;;;;;;;13109704;22;20892;-82
2023/06/08 23:30:09;;;;;;;7.80;5.97;;;;;;;;;;13110809;22;20975;-81
2023/06/08 23:35:11;;;;;;;7.13;6.25;;;;;;;;;;13109967;22;20432;-82
2023/06/08 23:40:13;;;;;;;8.15;6.28;;;;;;;;;;13109635;22;20516;-82
2023/06/08 23:45:17;;;;;;;9.43;6.13;;;;;;;;;;13110121;22;20475;-82
2023/06/08 23:50:20;;;;;;;8.00;6.73;;;;;;;;;;13110279;22;20420;-82
2023/06/08 23:55:22;;;;;;;8.15;7.03;;;;;;;;;;13109954;22;20371;-82
